Time;durP1;ratioP1;P1;durP2;ratioP2;P2;SDS_P1;SDS_P2;PMS_P1;PMS_P2;Temp;Humidity;BMP_temperature;BMP_pressure;BME280_temperature;BME280_humidity;BME280_pressure;Samples;Min_cycle;Max_cycle;Signal;HPM_P1;HPM_P2
2022/10/14 00:01:50;;;;;;;14.85;7.70;;;11.20;99.90;;;;;;6363777;28;20270;-67
2022/10/14 00:04:56;;;;;;;15.43;7.20;;;11.20;99.90;;;;;;6363182;28;20566;-67
2022/10/14 00:08:01;;;;;;;12.15;6.82;;;11.20;99.90;;;;;;6363279;28;20297;-67
2022/10/14 00:11:09;;;;;;;15.65;8.60;;;11.30;99.90;;;;;;6363535;28;20273;-67
2022/10/14 00:14:17;;;;;;;15.23;7.88;;;11.20;99.90;;;;;;6363226;28;20289;-67
2022/10/14 00:17:26;;;;;;;17.38;8.32;;;11.20;99.90;;;;;;6362761;28;20270;-67
2022/10/14 00:20:31;;;;;;;14.48;7.30;;;11.20;99.90;;;;;;6363225;28;20356;-66
2022/10/14 00:23:37;;;;;;;13.57;7.43;;;11.20;99.90;;;;;;6363323;28;20297;-67
2022/10/14 00:26:43;;;;;;;21.25;7.47;;;11.20;99.90;;;;;;6362661;28;20264;-67
2022/10/14 00:29:48;;;;;;;13.98;7.25;;;11.20;99.90;;;;;;6362749;28;20593;-66
2022/10/14 00:32:53;;;;;;;13.98;8.07;;;11.10;99.90;;;;;;6362755;28;20285;-66
2022/10/14 00:36:00;;;;;;;16.42;7.75;;;11.10;99.90;;;;;;6352119;28;20258;-67
2022/10/14 00:39:11;;;;;;;17.17;8.40;;;11.10;99.90;;;;;;6337006;28;20301;-66
2022/10/14 00:42:18;;;;;;;17.60;8.75;;;11.10;99.90;;;;;;6336634;28;20270;-68
2022/10/14 00:45:25;;;;;;;14.52;8.50;;;11.00;99.90;;;;;;6319635;28;20262;-66
2022/10/14 00:48:31;;;;;;;24.02;8.80;;;11.10;99.90;;;;;;6336613;28;20313;-67
2022/10/14 00:51:38;;;;;;;16.00;9.15;;;11.10;99.90;;;;;;6338312;28;20464;-67
2022/10/14 00:54:46;;;;;;;18.98;9.25;;;11.10;99.90;;;;;;6344124;28;20293;-66
2022/10/14 00:57:52;;;;;;;22.75;10.25;;;11.10;99.90;;;;;;6360776;28;20473;-66
2022/10/14 01:04:43;;;;;;;16.33;8.48;;;11.00;99.90;;;;;;7044024;23;20236;-67
2022/10/14 01:08:00;;;;;;;15.15;8.18;;;11.00;99.90;;;;;;6127043;29;20291;-66
2022/10/14 01:11:12;;;;;;;14.38;8.15;;;11.00;99.90;;;;;;6132656;29;20442;-67
2022/10/14 01:14:30;;;;;;;18.25;8.93;;;11.00;99.90;;;;;;6133011;29;20300;-67
2022/10/14 01:17:44;;;;;;;15.90;8.90;;;11.00;99.90;;;;;;6116019;29;20309;-66
2022/10/14 01:21:03;;;;;;;15.88;9.30;;;11.00;99.90;;;;;;6117318;29;20296;-66
2022/10/14 01:24:42;;;;;;;14.65;9.00;;;11.00;99.90;;;;;;6118211;29;20420;-67
2022/10/14 01:28:03;;;;;;;16.30;9.18;;;11.00;99.90;;;;;;6124101;29;20295;-67
2022/10/14 01:31:15;;;;;;;16.35;8.30;;;11.00;99.90;;;;;;6140962;29;20267;-67
2022/10/14 01:34:27;;;;;;;19.17;8.65;;;11.00;99.90;;;;;;6123525;29;20393;-67
2022/10/14 01:37:34;;;;;;;16.75;8.95;;;10.90;99.90;;;;;;6140236;29;20271;-66
2022/10/14 01:40:46;;;;;;;14.98;8.70;;;10.90;99.90;;;;;;6101857;29;20292;-66
2022/10/14 01:43:55;;;;;;;17.80;8.88;;;10.90;99.90;;;;;;6116411;29;20474;-67
2022/10/14 01:47:02;;;;;;;15.50;8.80;;;10.90;99.90;;;;;;6100443;29;20551;-67
2022/10/14 01:50:11;;;;;;;23.40;9.75;;;10.90;99.90;;;;;;6116377;29;20567;-68
2022/10/14 01:53:20;;;;;;;19.95;9.40;;;10.90;99.90;;;;;;6115395;29;20296;-67
2022/10/14 01:56:26;;;;;;;12.70;8.25;;;10.90;99.90;;;;;;6116772;29;20471;-67
2022/10/14 01:59:32;;;;;;;21.23;9.48;;;10.90;99.90;;;;;;6099692;29;20308;-67
2022/10/14 02:02:39;;;;;;;20.98;9.75;;;10.80;99.90;;;;;;6099375;29;20288;-67
2022/10/14 02:05:50;;;;;;;18.70;9.30;;;10.80;99.90;;;;;;6116176;29;20337;-66
2022/10/14 02:09:08;;;;;;;14.70;8.90;;;10.80;99.90;;;;;;6116029;29;20291;-66
2022/10/14 02:12:27;;;;;;;19.73;9.30;;;10.80;99.90;;;;;;6116165;29;20429;-68
2022/10/14 02:15:36;;;;;;;18.10;10.13;;;10.80;99.90;;;;;;6118896;29;20271;-67
2022/10/14 02:18:51;;;;;;;21.67;9.68;;;10.80;99.90;;;;;;6115133;29;20299;-67
2022/10/14 02:22:01;;;;;;;16.77;9.40;;;10.80;99.90;;;;;;6139839;29;20267;-67
2022/10/14 02:25:16;;;;;;;17.42;9.55;;;10.80;99.90;;;;;;6123031;29;20295;-68
2022/10/14 02:28:26;;;;;;;15.98;9.32;;;10.70;99.90;;;;;;6122962;29;20303;-67
2022/10/14 02:31:32;;;;;;;22.73;10.07;;;10.80;99.90;;;;;;6138907;29;20291;-67
2022/10/14 02:34:39;;;;;;;20.02;10.27;;;10.80;99.90;;;;;;6139735;29;20574;-68
2022/10/14 02:37:48;;;;;;;17.88;9.25;;;10.80;99.90;;;;;;6122855;29;20291;-68
2022/10/14 02:40:54;;;;;;;16.85;9.73;;;10.90;99.90;;;;;;6139855;29;20615;-68
2022/10/14 02:43:58;;;;;;;16.35;9.27;;;10.90;99.90;;;;;;6139714;29;20299;-68
2022/10/14 02:47:04;;;;;;;15.15;8.77;;;10.90;99.90;;;;;;6140099;29;20554;-68
2022/10/14 02:50:12;;;;;;;17.88;9.23;;;10.80;99.90;;;;;;6139389;29;20303;-66
2022/10/14 02:53:17;;;;;;;15.98;9.57;;;10.90;99.90;;;;;;6139224;29;20303;-66
2022/10/14 02:56:22;;;;;;;17.38;9.27;;;10.90;99.90;;;;;;6138869;29;20279;-66
2022/10/14 02:59:27;;;;;;;16.40;9.25;;;10.90;99.90;;;;;;6139404;29;20307;-67
2022/10/14 03:02:34;;;;;;;14.93;9.60;;;10.90;99.90;;;;;;6101677;29;20272;-67
2022/10/14 03:05:42;;;;;;;20.23;9.18;;;10.90;99.90;;;;;;6105097;29;20464;-67
2022/10/14 03:08:50;;;;;;;19.65;10.25;;;10.90;99.90;;;;;;6122510;29;20290;-66
2022/10/14 03:11:56;;;;;;;16.85;8.90;;;10.90;99.90;;;;;;6106859;29;20551;-66
2022/10/14 03:15:01;;;;;;;16.95;9.23;;;10.90;99.90;;;;;;6103217;29;20304;-67
2022/10/14 03:18:06;;;;;;;16.52;9.10;;;10.90;99.90;;;;;;6118599;29;20311;-67
2022/10/14 03:21:20;;;;;;;13.70;9.15;;;10.90;99.90;;;;;;6125881;29;20287;-67
2022/10/14 03:24:25;;;;;;;15.35;8.57;;;10.90;99.90;;;;;;6126697;29;20294;-66
2022/10/14 03:27:51;;;;;;;16.25;9.05;;;10.90;99.90;;;;;;6142042;29;20607;-67
2022/10/14 03:30:59;;;;;;;14.68;9.02;;;10.80;99.90;;;;;;6126482;29;20279;-66
2022/10/14 03:34:27;;;;;;;13.18;8.40;;;10.80;99.90;;;;;;6124285;29;20298;-66
2022/10/14 03:37:42;;;;;;;17.70;8.70;;;10.80;99.90;;;;;;6108569;29;20295;-67
2022/10/14 03:40:48;;;;;;;19.83;8.82;;;10.80;99.90;;;;;;6118533;29;20307;-66
2022/10/14 03:43:53;;;;;;;15.90;8.45;;;10.90;99.90;;;;;;6102598;29;20300;-67
2022/10/14 03:46:59;;;;;;;18.10;9.00;;;10.80;99.90;;;;;;6102473;29;20516;-66
2022/10/14 03:50:09;;;;;;;11.65;8.63;;;10.90;99.90;;;;;;6102697;29;20383;-67
2022/10/14 03:53:22;;;;;;;11.98;7.72;;;10.90;99.90;;;;;;6102524;29;20308;-66
2022/10/14 03:56:27;;;;;;;18.30;8.45;;;10.90;99.90;;;;;;6102794;29;20268;-67
2022/10/14 03:59:32;;;;;;;13.48;8.63;;;10.90;99.90;;;;;;6101950;29;20307;-67
2022/10/14 04:02:38;;;;;;;14.43;8.75;;;10.90;99.90;;;;;;6117788;29;20295;-67
2022/10/14 04:05:47;;;;;;;16.50;8.52;;;10.80;99.90;;;;;;6102286;29;20310;-67
2022/10/14 04:08:57;;;;;;;17.95;8.20;;;10.90;99.90;;;;;;6101982;29;20292;-67
2022/10/14 04:12:07;;;;;;;15.75;8.10;;;10.80;99.90;;;;;;6114257;29;20273;-67
2022/10/14 04:15:29;;;;;;;12.77;8.43;;;10.70;99.90;;;;;;6117194;29;20280;-67
2022/10/14 04:18:46;;;;;;;13.82;7.93;;;10.70;99.90;;;;;;6117603;29;20631;-67
2022/10/14 04:21:55;;;;;;;14.05;8.32;;;10.80;99.90;;;;;;6117768;29;20313;-67
2022/10/14 04:25:07;;;;;;;12.77;8.30;;;10.80;99.90;;;;;;6117170;29;20615;-67
2022/10/14 04:28:14;;;;;;;13.57;8.25;;;10.80;99.90;;;;;;6117664;29;20307;-67
2022/10/14 04:31:33;;;;;;;12.73;8.00;;;10.80;99.90;;;;;;6117947;29;20272;-68
2022/10/14 04:34:40;;;;;;;16.88;9.52;;;10.70;99.90;;;;;;6117042;29;20300;-67
2022/10/14 04:37:47;;;;;;;14.93;8.63;;;10.70;99.90;;;;;;6117244;29;20689;-67
2022/10/14 04:41:00;;;;;;;15.02;8.65;;;10.70;99.90;;;;;;6118824;29;20291;-67
2022/10/14 04:44:06;;;;;;;16.75;8.63;;;10.70;99.90;;;;;;6116946;29;20304;-67
2022/10/14 04:47:19;;;;;;;10.45;7.72;;;10.70;99.90;;;;;;6116851;29;20272;-67
2022/10/14 04:50:32;;;;;;;12.05;8.23;;;10.70;99.90;;;;;;6117517;29;20463;-67
2022/10/14 04:54:03;;;;;;;11.88;8.18;;;10.70;99.90;;;;;;6116303;29;20297;-67
2022/10/14 04:57:31;;;;;;;10.07;7.70;;;10.60;99.90;;;;;;6116471;29;20559;-67
2022/10/14 05:00:36;;;;;;;12.52;8.20;;;10.70;99.90;;;;;;6116923;29;20324;-67
2022/10/14 05:04:01;;;;;;;13.88;7.90;;;10.70;99.90;;;;;;6117761;29;20339;-67
2022/10/14 05:07:07;;;;;;;12.25;7.78;;;10.60;99.90;;;;;;6135762;29;20274;-67
2022/10/14 05:10:13;;;;;;;12.30;8.15;;;10.50;99.90;;;;;;6119496;29;20296;-67
2022/10/14 05:13:20;;;;;;;13.05;7.97;;;10.50;99.90;;;;;;6100599;29;20300;-67
2022/10/14 05:16:34;;;;;;;16.60;8.30;;;10.40;99.90;;;;;;6100623;29;20272;-67
2022/10/14 05:19:40;;;;;;;13.98;8.45;;;10.30;99.90;;;;;;6100623;29;20304;-67
2022/10/14 05:22:45;;;;;;;11.82;8.90;;;10.30;99.90;;;;;;6100239;29;20474;-67
2022/10/14 05:25:51;;;;;;;11.07;8.48;;;10.30;99.90;;;;;;6100803;29;20272;-67
2022/10/14 05:28:58;;;;;;;18.05;8.65;;;10.40;99.90;;;;;;6100408;29;20304;-67
2022/10/14 05:32:06;;;;;;;13.23;8.63;;;10.40;99.90;;;;;;6115946;29;20424;-67
2022/10/14 05:35:31;;;;;;;16.90;9.43;;;10.40;99.90;;;;;;6114863;29;20272;-67
2022/10/14 05:38:57;;;;;;;14.70;8.85;;;10.30;99.90;;;;;;6094488;29;20299;-67
2022/10/14 05:42:11;;;;;;;21.13;10.00;;;10.30;99.90;;;;;;6100361;29;20291;-67
2022/10/14 05:45:19;;;;;;;11.48;8.65;;;10.30;99.90;;;;;;6099516;29;20279;-67
2022/10/14 05:48:29;;;;;;;14.05;9.38;;;10.30;99.90;;;;;;6099939;29;20299;-67
2022/10/14 05:51:35;;;;;;;13.48;8.93;;;10.30;99.90;;;;;;6100315;29;20359;-67
2022/10/14 05:54:47;;;;;;;13.65;9.23;;;10.10;99.90;;;;;;6099806;29;20595;-67
2022/10/14 05:57:57;;;;;;;9.57;8.57;;;10.10;99.90;;;;;;6099736;29;20239;-65
2022/10/14 06:01:13;;;;;;;15.38;8.80;;;10.20;99.90;;;;;;6115403;29;22480;-67
2022/10/14 06:04:20;;;;;;;9.10;8.20;;;10.20;99.90;;;;;;6095813;29;20304;-67
2022/10/14 06:07:26;;;;;;;12.63;9.48;;;10.20;99.90;;;;;;6091718;29;20433;-67
2022/10/14 06:10:31;;;;;;;18.50;9.48;;;10.20;99.90;;;;;;6098918;29;20267;-66
2022/10/14 06:13:37;;;;;;;11.18;8.57;;;10.20;99.90;;;;;;6099883;29;20308;-67
2022/10/14 06:16:47;;;;;;;10.20;8.88;;;10.10;99.90;;;;;;6100012;29;20267;-67
2022/10/14 06:19:52;;;;;;;18.08;9.70;;;10.20;99.90;;;;;;6099621;29;20375;-67
2022/10/14 06:22:59;;;;;;;16.25;9.95;;;10.10;99.90;;;;;;6115707;29;20291;-67
2022/10/14 06:26:06;;;;;;;20.35;9.43;;;10.10;99.90;;;;;;6116631;29;20276;-67
2022/10/14 06:29:12;;;;;;;13.20;9.30;;;10.10;99.90;;;;;;6115881;29;20307;-67
2022/10/14 06:32:18;;;;;;;15.48;9.18;;;10.10;99.90;;;;;;6116354;29;20271;-68
2022/10/14 06:35:23;;;;;;;12.27;8.90;;;10.10;99.90;;;;;;6115997;29;20276;-67
2022/10/14 06:38:28;;;;;;;13.45;9.32;;;10.20;99.90;;;;;;6115856;29;20461;-68
2022/10/14 06:41:33;;;;;;;16.55;9.25;;;10.20;99.90;;;;;;6116651;29;20268;-69
2022/10/14 06:44:38;;;;;;;10.32;9.15;;;10.20;99.90;;;;;;6115618;29;20295;-68
2022/10/14 06:47:44;;;;;;;13.98;10.13;;;10.30;99.90;;;;;;6118720;29;20299;-68
2022/10/14 06:50:49;;;;;;;18.02;9.48;;;10.40;99.90;;;;;;6120795;29;20276;-68
2022/10/14 06:53:54;;;;;;;15.15;10.13;;;10.40;99.90;;;;;;6120569;29;20303;-67
2022/10/14 06:56:59;;;;;;;14.48;9.88;;;10.40;99.90;;;;;;6120705;29;20267;-68
2022/10/14 07:00:06;;;;;;;14.00;8.82;;;10.60;99.90;;;;;;6120673;29;20300;-68
2022/10/14 07:03:15;;;;;;;14.68;9.73;;;10.60;99.90;;;;;;6120428;29;20299;-68
2022/10/14 07:06:20;;;;;;;15.77;10.05;;;10.70;99.90;;;;;;6138981;29;20295;-68
2022/10/14 07:09:25;;;;;;;18.73;9.43;;;10.70;99.90;;;;;;6143580;29;20302;-68
2022/10/14 07:12:30;;;;;;;14.32;9.52;;;10.80;99.90;;;;;;6120266;29;20276;-67
2022/10/14 07:15:34;;;;;;;15.30;9.63;;;10.80;99.90;;;;;;6120512;29;20276;-68
2022/10/14 07:18:41;;;;;;;16.55;9.00;;;10.80;99.90;;;;;;6120066;29;20291;-68
2022/10/14 07:21:46;;;;;;;9.88;8.73;;;10.80;99.90;;;;;;6120732;29;20275;-68
2022/10/14 07:24:51;;;;;;;18.65;8.68;;;10.80;99.90;;;;;;6119555;29;20307;-68
2022/10/14 07:27:56;;;;;;;10.07;8.77;;;10.80;99.90;;;;;;6119717;29;20301;-68
2022/10/14 07:31:03;;;;;;;10.48;9.13;;;10.70;99.90;;;;;;6119577;29;20268;-68
2022/10/14 07:34:09;;;;;;;9.20;8.10;;;10.80;99.90;;;;;;6119435;29;20583;-68
2022/10/14 07:37:15;;;;;;;15.75;9.05;;;10.70;99.90;;;;;;6120058;29;20279;-68
2022/10/14 07:40:21;;;;;;;11.63;8.32;;;10.60;99.90;;;;;;6118969;29;20272;-68
2022/10/14 07:43:25;;;;;;;12.27;8.70;;;10.70;99.90;;;;;;6118949;29;20583;-68
2022/10/14 07:46:31;;;;;;;14.50;8.73;;;10.60;99.90;;;;;;6119747;29;20276;-68
2022/10/14 07:49:38;;;;;;;17.98;9.48;;;10.70;99.90;;;;;;6119137;29;20607;-68
2022/10/14 07:52:43;;;;;;;15.48;8.52;;;10.70;99.90;;;;;;6111517;29;20292;-68
2022/10/14 07:55:51;;;;;;;15.15;8.63;;;10.80;99.90;;;;;;6119361;29;20267;-68
2022/10/14 07:58:56;;;;;;;14.55;8.82;;;10.90;99.90;;;;;;6118031;29;20308;-68
2022/10/14 08:02:01;;;;;;;11.70;8.48;;;10.90;99.90;;;;;;6119001;29;20599;-67
2022/10/14 08:05:07;;;;;;;13.45;8.50;;;10.90;99.90;;;;;;6118595;29;20406;-68
2022/10/14 08:08:33;;;;;;;11.30;8.93;;;10.90;99.90;;;;;;6118769;29;20299;-68
2022/10/14 08:11:38;;;;;;;14.18;9.07;;;10.90;99.90;;;;;;6134811;29;20263;-67
2022/10/14 08:14:43;;;;;;;16.48;8.07;;;10.90;99.90;;;;;;6134392;29;20496;-67
2022/10/14 08:17:48;;;;;;;11.25;8.13;;;11.00;99.90;;;;;;6142120;29;20291;-67
2022/10/14 08:20:54;;;;;;;13.52;8.65;;;11.00;99.90;;;;;;6142399;29;20555;-67
2022/10/14 08:23:59;;;;;;;10.55;8.48;;;11.00;99.90;;;;;;6141704;29;20386;-67
2022/10/14 08:27:05;;;;;;;16.95;9.18;;;11.00;99.90;;;;;;6142407;29;20272;-67
2022/10/14 08:30:12;;;;;;;16.48;8.50;;;11.10;99.90;;;;;;6125246;29;20307;-67
2022/10/14 08:33:18;;;;;;;12.05;8.35;;;11.10;99.90;;;;;;6141559;29;20408;-67
2022/10/14 08:36:24;;;;;;;12.07;7.95;;;11.10;99.90;;;;;;6142265;29;20275;-67
2022/10/14 08:39:29;;;;;;;14.45;8.32;;;11.10;99.90;;;;;;6141712;29;20347;-67
2022/10/14 08:42:42;;;;;;;11.75;8.00;;;11.20;99.90;;;;;;6141684;29;20271;-68
2022/10/14 08:45:53;;;;;;;11.30;8.00;;;11.20;99.90;;;;;;6141550;29;20551;-67
2022/10/14 08:49:05;;;;;;;10.90;8.60;;;11.20;99.90;;;;;;6141484;29;20382;-67
2022/10/14 08:52:15;;;;;;;15.32;8.10;;;11.30;99.90;;;;;;6141415;29;20273;-67
2022/10/14 08:55:29;;;;;;;12.05;8.00;;;11.30;99.90;;;;;;6140811;29;20275;-67
2022/10/14 08:58:37;;;;;;;19.42;8.20;;;11.30;99.90;;;;;;6141332;29;20428;-67
2022/10/14 09:01:51;;;;;;;11.43;8.25;;;11.40;99.90;;;;;;6141683;29;20272;-66
2022/10/14 09:04:57;;;;;;;13.50;8.10;;;11.40;99.90;;;;;;6140726;29;20602;-67
2022/10/14 09:08:03;;;;;;;9.90;7.93;;;11.40;99.90;;;;;;6141032;29;20299;-67
2022/10/14 09:11:15;;;;;;;18.30;8.27;;;11.40;99.90;;;;;;6128219;29;20268;-67
2022/10/14 09:14:23;;;;;;;20.50;8.70;;;11.40;99.90;;;;;;6100493;29;20615;-67
2022/10/14 09:17:32;;;;;;;13.82;7.88;;;11.40;99.90;;;;;;6116732;29;20272;-68
2022/10/14 09:20:42;;;;;;;12.85;7.43;;;11.40;99.90;;;;;;6117691;29;20272;-67
2022/10/14 09:23:48;;;;;;;13.25;7.03;;;11.50;99.90;;;;;;6116698;29;20304;-68
2022/10/14 09:26:57;;;;;;;12.18;7.80;;;11.60;99.90;;;;;;6117451;29;20267;-68
2022/10/14 09:30:09;;;;;;;18.23;7.53;;;11.70;99.90;;;;;;6116848;29;20324;-66
2022/10/14 09:33:20;;;;;;;8.15;7.03;;;11.70;99.90;;;;;;6116423;29;20302;-67
2022/10/14 09:36:25;;;;;;;15.35;8.02;;;11.70;99.90;;;;;;6117366;29;20461;-67
2022/10/14 09:39:39;;;;;;;13.40;7.40;;;11.80;99.90;;;;;;6116578;29;20332;-67
2022/10/14 09:42:50;;;;;;;12.00;7.07;;;11.80;99.90;;;;;;6116853;29;20301;-68
2022/10/14 09:45:58;;;;;;;13.85;7.38;;;11.80;99.90;;;;;;6116894;29;20291;-67
2022/10/14 09:49:03;;;;;;;16.00;7.57;;;11.80;99.90;;;;;;6116528;29;20300;-67
2022/10/14 09:52:19;;;;;;;15.57;7.30;;;11.90;99.90;;;;;;6116753;29;20563;-67
2022/10/14 09:55:25;;;;;;;10.98;6.60;;;12.00;99.90;;;;;;6116045;29;20276;-67
2022/10/14 09:58:33;;;;;;;8.13;6.28;;;12.20;99.90;;;;;;6116449;29;20299;-67
2022/10/14 10:01:41;;;;;;;17.25;6.95;;;12.20;99.90;;;;;;6117024;29;20276;-67
2022/10/14 10:04:47;;;;;;;12.85;6.97;;;12.20;99.90;;;;;;6109483;29;20308;-67
2022/10/14 10:08:11;;;;;;;9.27;6.63;;;12.30;99.90;;;;;;6092898;29;20592;-67
2022/10/14 10:11:28;;;;;;;12.63;6.93;;;12.30;99.90;;;;;;6106232;29;20263;-67
2022/10/14 10:14:34;;;;;;;8.90;6.30;;;12.30;99.90;;;;;;6116033;29;20626;-67
2022/10/14 10:17:40;;;;;;;11.63;5.82;;;12.30;99.90;;;;;;6116340;29;20295;-67
2022/10/14 10:21:05;;;;;;;10.55;5.55;;;12.40;99.90;;;;;;6109650;29;20272;-67
2022/10/14 10:24:20;;;;;;;15.80;6.50;;;12.40;99.90;;;;;;6121081;29;20308;-68
2022/10/14 10:27:36;;;;;;;8.57;5.63;;;12.40;99.90;;;;;;6121074;29;20276;-67
2022/10/14 10:30:48;;;;;;;11.02;6.05;;;12.50;99.90;;;;;;6100968;29;20269;-68
2022/10/14 10:34:00;;;;;;;13.02;5.90;;;12.50;99.90;;;;;;6097028;29;20301;-67
2022/10/14 10:37:13;;;;;;;13.43;5.45;;;12.50;99.90;;;;;;6097973;29;20276;-67
2022/10/14 10:40:38;;;;;;;7.13;5.70;;;12.60;99.90;;;;;;6097218;29;20457;-67
2022/10/14 10:44:15;;;;;;;11.63;6.18;;;12.60;99.90;;;;;;6097081;29;20296;-68
2022/10/14 10:47:33;;;;;;;13.55;6.25;;;12.60;99.90;;;;;;6097221;29;20272;-68
2022/10/14 10:50:48;;;;;;;11.57;5.97;;;12.70;99.90;;;;;;6120873;29;20568;-68
2022/10/14 10:54:05;;;;;;;7.50;5.45;;;12.70;99.90;;;;;;6120416;29;20300;-67
2022/10/14 10:57:29;;;;;;;7.82;5.75;;;12.70;99.90;;;;;;6120514;29;20276;-67
2022/10/14 11:00:45;;;;;;;9.20;6.50;;;12.70;99.90;;;;;;6119813;29;20276;-67
2022/10/14 11:04:03;;;;;;;8.02;6.05;;;12.80;99.90;;;;;;6120094;29;20583;-67
2022/10/14 11:14:30;;;;;;;15.80;7.22;;;12.90;99.90;;;;;;6120040;29;20490;-68
2022/10/14 11:17:45;;;;;;;11.45;6.63;;;13.10;99.90;;;;;;6119997;29;20268;-67
2022/10/14 11:21:04;;;;;;;8.80;6.47;;;13.20;99.90;;;;;;6120157;29;20272;-66
2022/10/14 11:24:18;;;;;;;8.50;5.80;;;13.20;99.90;;;;;;6119568;29;20299;-66
2022/10/14 11:27:30;;;;;;;10.25;6.38;;;13.30;99.90;;;;;;6119542;29;20447;-66
2022/10/14 11:30:43;;;;;;;7.07;6.45;;;13.30;99.90;;;;;;6119759;29;20457;-67
2022/10/14 11:34:04;;;;;;;13.27;6.78;;;13.30;99.90;;;;;;6118215;29;20599;-66
2022/10/14 11:37:25;;;;;;;16.48;6.70;;;13.30;99.90;;;;;;6103436;29;20272;-68
2022/10/14 11:40:39;;;;;;;10.15;6.70;;;13.40;99.90;;;;;;6118506;29;20556;-67
2022/10/14 11:43:49;;;;;;;13.15;6.20;;;13.40;99.90;;;;;;6119410;29;20299;-68
2022/10/14 11:46:57;;;;;;;10.15;6.03;;;13.50;99.90;;;;;;6119609;29;20295;-67
2022/10/14 11:50:13;;;;;;;7.70;6.20;;;13.60;99.90;;;;;;6119467;29;20591;-68
2022/10/14 11:53:22;;;;;;;7.30;6.35;;;13.60;99.90;;;;;;6119027;29;20611;-68
2022/10/14 11:56:37;;;;;;;9.02;5.82;;;13.60;99.90;;;;;;6119386;29;20414;-68
2022/10/14 11:59:47;;;;;;;11.07;6.05;;;13.70;99.90;;;;;;6118992;29;20301;-68
2022/10/14 12:02:56;;;;;;;7.63;5.68;;;13.70;99.90;;;;;;6119120;29;20288;-67
2022/10/14 12:06:09;;;;;;;6.55;5.65;;;13.70;99.90;;;;;;6119099;29;20312;-67
2022/10/14 12:09:22;;;;;;;6.82;5.95;;;13.60;99.90;;;;;;6119007;29;20300;-67
2022/10/14 12:12:29;;;;;;;8.07;6.20;;;13.60;99.90;;;;;;6118755;29;20471;-68
2022/10/14 12:15:34;;;;;;;7.75;6.43;;;13.60;99.90;;;;;;6119393;29;20555;-68
2022/10/14 12:18:40;;;;;;;11.43;7.05;;;13.60;99.90;;;;;;6118810;29;20383;-68
2022/10/14 12:21:51;;;;;;;9.88;6.22;;;13.60;99.90;;;;;;6119098;29;20409;-68
2022/10/14 12:25:02;;;;;;;9.80;6.63;;;13.60;99.90;;;;;;6118721;29;20296;-67
2022/10/14 12:28:11;;;;;;;10.48;7.25;;;13.60;99.90;;;;;;6118369;29;20299;-68
2022/10/14 12:31:34;;;;;;;12.15;6.40;;;13.60;99.90;;;;;;6118868;29;20551;-67
2022/10/14 12:34:40;;;;;;;6.57;5.78;;;13.60;99.90;;;;;;6118451;29;20459;-67
2022/10/14 12:37:53;;;;;;;11.95;7.10;;;13.70;99.90;;;;;;6118367;29;20304;-68
2022/10/14 12:41:34;;;;;;;7.90;6.68;;;13.70;99.90;;;;;;6118048;29;20268;-67
2022/10/14 12:44:47;;;;;;;13.65;6.70;;;13.70;99.90;;;;;;6117842;29;20482;-67
2022/10/14 12:48:07;;;;;;;7.68;6.13;;;13.70;99.90;;;;;;6117784;29;20428;-67
2022/10/14 12:51:14;;;;;;;8.90;6.43;;;13.70;99.90;;;;;;6118506;29;20276;-68
2022/10/14 12:54:21;;;;;;;10.18;6.65;;;13.70;99.90;;;;;;6118077;29;20300;-68
2022/10/14 12:57:30;;;;;;;8.00;6.95;;;13.80;99.90;;;;;;6117994;29;20276;-67
2022/10/14 13:00:39;;;;;;;7.38;6.28;;;13.80;99.90;;;;;;6118406;29;20295;-67
2022/10/14 13:03:46;;;;;;;11.88;6.55;;;13.90;99.90;;;;;;6117871;29;20296;-68
2022/10/14 13:07:38;;;;;;;7.30;6.60;;;13.80;99.90;;;;;;6141105;29;20307;-68
2022/10/14 13:10:49;;;;;;;6.57;5.90;;;13.70;99.90;;;;;;6131696;29;20532;-67
2022/10/14 13:14:01;;;;;;;7.85;6.25;;;13.70;99.90;;;;;;6117181;29;20300;-67
2022/10/14 13:17:28;;;;;;;10.48;6.18;;;13.60;99.90;;;;;;6117094;29;20276;-67
2022/10/14 13:20:51;;;;;;;7.32;6.30;;;13.60;99.90;;;;;;6116944;29;20271;-67
2022/10/14 13:23:56;;;;;;;8.65;6.57;;;13.60;99.90;;;;;;6116757;29;20462;-67
2022/10/14 13:27:15;;;;;;;11.60;6.55;;;13.60;99.90;;;;;;6117631;29;20292;-68
2022/10/14 13:30:29;;;;;;;13.18;6.60;;;13.60;99.90;;;;;;6116526;29;20313;-68
2022/10/14 13:33:44;;;;;;;11.98;6.80;;;13.60;99.90;;;;;;6116844;29;20299;-68
2022/10/14 13:37:04;;;;;;;9.35;6.47;;;13.70;99.90;;;;;;6116994;29;20292;-68
2022/10/14 13:40:22;;;;;;;9.02;6.90;;;13.70;99.90;;;;;;6116616;29;20295;-68
2022/10/14 13:43:41;;;;;;;9.40;5.80;;;13.80;99.90;;;;;;6116411;29;20307;-68
2022/10/14 13:46:48;;;;;;;8.57;6.25;;;13.70;99.90;;;;;;6116777;29;20292;-68
2022/10/14 13:49:53;;;;;;;12.60;6.50;;;13.80;99.90;;;;;;6116487;29;20484;-68
2022/10/14 13:53:03;;;;;;;9.38;6.13;;;13.90;99.90;;;;;;6116776;29;20599;-68
2022/10/14 13:56:22;;;;;;;6.93;6.22;;;13.80;99.90;;;;;;6116245;29;20283;-68
2022/10/14 13:59:31;;;;;;;7.68;6.32;;;13.90;99.90;;;;;;6115857;29;20296;-68
2022/10/14 14:02:54;;;;;;;12.38;6.50;;;13.90;99.90;;;;;;6116336;29;20287;-67
2022/10/14 14:06:03;;;;;;;11.52;7.28;;;13.90;99.90;;;;;;6100756;29;20311;-67
2022/10/14 14:09:08;;;;;;;9.32;7.45;;;13.80;99.90;;;;;;6092922;29;20300;-67
2022/10/14 14:12:14;;;;;;;12.05;6.72;;;13.80;99.90;;;;;;6113240;29;20264;-67
2022/10/14 14:15:25;;;;;;;13.80;7.18;;;13.70;99.90;;;;;;6115200;29;20275;-67
2022/10/14 14:18:36;;;;;;;11.85;7.95;;;13.70;99.90;;;;;;6116492;29;20483;-67
2022/10/14 14:22:17;;;;;;;9.93;7.70;;;13.70;99.90;;;;;;6111348;29;20276;-67
2022/10/14 14:25:26;;;;;;;18.90;8.30;;;13.70;99.90;;;;;;6115278;29;20280;-67
2022/10/14 14:28:47;;;;;;;9.23;7.80;;;13.60;99.90;;;;;;6092190;29;20236;-67
2022/10/14 14:31:54;;;;;;;13.68;8.48;;;13.50;99.90;;;;;;6116624;29;20559;-67
2022/10/14 14:35:13;;;;;;;14.73;8.77;;;13.50;99.90;;;;;;6115763;29;20313;-67
2022/10/14 14:38:29;;;;;;;14.55;8.55;;;13.50;99.90;;;;;;6116121;29;20317;-67
2022/10/14 14:41:34;;;;;;;9.88;8.30;;;13.40;99.90;;;;;;6116370;29;20272;-67
2022/10/14 14:44:42;;;;;;;10.18;7.22;;;13.40;99.90;;;;;;6115590;29;20365;-67
2022/10/14 14:47:50;;;;;;;11.65;7.78;;;13.40;99.90;;;;;;6115815;29;20295;-67
2022/10/14 14:50:58;;;;;;;8.40;7.43;;;13.40;99.90;;;;;;6116279;29;20272;-67
2022/10/14 14:54:03;;;;;;;9.48;7.97;;;13.30;99.90;;;;;;6116018;29;20299;-67
2022/10/14 14:57:09;;;;;;;18.48;8.70;;;13.40;99.90;;;;;;6116382;29;20281;-67
2022/10/14 15:00:19;;;;;;;12.30;8.20;;;13.30;99.90;;;;;;6115406;29;20328;-66
2022/10/14 15:03:29;;;;;;;14.18;8.88;;;13.30;99.90;;;;;;6115302;29;20296;-67
2022/10/14 15:06:35;;;;;;;15.25;8.05;;;13.30;99.90;;;;;;6136030;29;20500;-68
2022/10/14 15:09:44;;;;;;;15.30;8.75;;;13.30;99.90;;;;;;6143291;29;20619;-68
2022/10/14 15:12:53;;;;;;;16.08;8.88;;;13.30;99.90;;;;;;6120057;29;20295;-67
2022/10/14 15:16:00;;;;;;;9.35;7.68;;;13.30;99.90;;;;;;6103514;29;20276;-67
2022/10/14 15:19:32;;;;;;;18.65;7.97;;;13.30;99.90;;;;;;6119344;29;20304;-67
2022/10/14 15:22:43;;;;;;;10.40;8.02;;;13.30;99.90;;;;;;6119824;29;20299;-67
2022/10/14 15:25:57;;;;;;;9.98;8.13;;;13.20;99.90;;;;;;6120303;29;20279;-68
2022/10/14 15:29:06;;;;;;;11.20;7.85;;;13.20;99.90;;;;;;6115412;29;20300;-68
2022/10/14 15:32:15;;;;;;;11.95;7.80;;;13.20;99.90;;;;;;6119131;29;20316;-68
2022/10/14 15:35:22;;;;;;;10.73;8.13;;;13.10;99.90;;;;;;6122213;29;20287;-68
2022/10/14 15:38:27;;;;;;;16.10;8.10;;;13.10;99.90;;;;;;6126368;29;20267;-66
2022/10/14 15:41:32;;;;;;;11.40;8.57;;;13.00;99.90;;;;;;6127015;29;20645;-67
2022/10/14 15:44:37;;;;;;;14.27;9.18;;;13.00;99.90;;;;;;6120536;29;20594;-67
2022/10/14 15:47:42;;;;;;;15.45;8.85;;;13.00;99.90;;;;;;6118576;29;20591;-67
2022/10/14 15:50:48;;;;;;;12.68;8.50;;;13.00;99.90;;;;;;6142545;29;20298;-67
2022/10/14 15:53:53;;;;;;;14.25;8.93;;;12.90;99.90;;;;;;6125450;29;20264;-68
2022/10/14 15:56:58;;;;;;;16.48;8.50;;;12.90;99.90;;;;;;6098536;29;20280;-68
2022/10/14 16:00:04;;;;;;;16.30;9.48;;;12.90;99.90;;;;;;6095387;29;20508;-68
2022/10/14 16:03:16;;;;;;;14.05;8.85;;;12.90;99.90;;;;;;6119327;29;20268;-68
2022/10/14 16:06:23;;;;;;;15.13;9.40;;;12.90;99.90;;;;;;6100254;29;20308;-67
2022/10/14 16:09:28;;;;;;;15.70;8.77;;;12.90;99.90;;;;;;6095415;29;20330;-67
2022/10/14 16:12:33;;;;;;;16.42;8.60;;;12.90;99.90;;;;;;6095965;29;20272;-66
2022/10/14 16:15:46;;;;;;;14.43;9.10;;;12.80;99.90;;;;;;6095243;29;20305;-66
2022/10/14 16:18:55;;;;;;;21.90;8.93;;;12.80;99.90;;;;;;6102833;29;20284;-68
2022/10/14 16:22:01;;;;;;;20.88;9.30;;;12.70;99.90;;;;;;6094836;29;20568;-67
2022/10/14 16:25:09;;;;;;;13.52;8.18;;;12.70;99.90;;;;;;6071720;29;20480;-68
2022/10/14 16:28:14;;;;;;;11.10;8.02;;;12.70;99.90;;;;;;6072459;29;20298;-68
2022/10/14 16:31:20;;;;;;;11.88;9.10;;;12.60;99.90;;;;;;6071870;29;20296;-67